Time,TemperatureF,DewpointF,PressureIn,WindDirection,WindDirectionDegrees,WindSpeedMPH,WindSpeedGustMPH,Humidity,HourlyPrecipIn,Conditions,Clouds,dailyrainin,SolarRadiationWatts/m^2,SoftwareType,DateUTC
2013-01-05 00:02:00,47.9,40.0,30.26,SSW,206,0.0,0.0,75,0.00,,,0.00,0,weatherlink.com 1.10,2013-01-05 08:02:00,
2013-01-05 00:32:00,47.4,40.0,30.25,SSW,206,0.0,0.0,76,0.00,,,0.00,0,weatherlink.com 1.10,2013-01-05 08:32:00,
2013-01-05 00:47:00,47.0,40.0,30.26,SSW,206,0.0,2.0,77,0.00,,,0.00,0,weatherlink.com 1.10,2013-01-05 08:47:00,
2013-01-05 01:02:00,46.9,40.0,30.26,SSW,206,0.0,0.0,78,0.00,,,0.00,0,weatherlink.com 1.10,2013-01-05 09:02:00,
2013-01-05 01:17:00,46.8,41.0,30.26,SSW,206,0.0,1.0,79,0.00,,,0.00,0,weatherlink.com 1.10,2013-01-05 09:17:00,
2013-01-05 01:32:00,46.8,40.0,30.26,SSW,206,0.0,0.0,78,0.00,,,0.00,0,weatherlink.com 1.10,2013-01-05 09:32:00,
2013-01-05 01:47:00,46.5,41.0,30.26,SSW,206,0.0,0.0,80,0.00,,,0.00,0,weatherlink.com 1.10,2013-01-05 09:47:00,
2013-01-05 02:03:00,45.9,40.0,30.27,SSW,206,0.0,0.0,80,0.00,,,0.00,0,weatherlink.com 1.10,2013-01-05 10:03:00,
2013-01-05 02:18:00,45.8,40.0,30.26,SSW,206,0.0,0.0,80,0.00,,,0.00,0,weatherlink.com 1.10,2013-01-05 10:18:00,
2013-01-05 02:32:00,45.4,40.0,30.26,SSW,206,0.0,0.0,81,0.00,,,0.00,0,weatherlink.com 1.10,2013-01-05 10:32:00,
2013-01-05 02:47:00,45.4,40.0,30.27,SSW,206,0.0,0.0,82,0.00,,,0.00,0,weatherlink.com 1.10,2013-01-05 10:47:00,
2013-01-05 03:18:00,44.7,40.0,30.28,SSW,206,0.0,1.0,83,0.00,,,0.00,0,weatherlink.com 1.10,2013-01-05 11:18:00,
2013-01-05 03:33:00,44.9,40.0,30.27,SSW,206,0.0,0.0,83,0.00,,,0.00,0,weatherlink.com 1.10,2013-01-05 11:33:00,
2013-01-05 03:48:00,45.0,41.0,30.27,SSW,206,0.0,0.0,84,0.00,,,0.00,0,weatherlink.com 1.10,2013-01-05 11:48:00,
2013-01-05 04:18:00,45.2,40.0,30.27,SSW,206,0.0,0.0,82,0.00,,,0.00,0,weatherlink.com 1.10,2013-01-05 12:18:00,
2013-01-05 04:48:00,45.1,40.0,30.27,SSW,206,0.0,1.0,83,0.00,,,0.00,0,weatherlink.com 1.10,2013-01-05 12:48:00,
2013-01-05 05:03:00,45.1,41.0,30.28,SSW,206,0.0,1.0,84,0.00,,,0.00,0,weatherlink.com 1.10,2013-01-05 13:03:00,
2013-01-05 05:18:00,45.5,41.0,30.28,SSW,206,0.0,2.0,84,0.00,,,0.00,0,weatherlink.com 1.10,2013-01-05 13:18:00,
2013-01-05 05:33:00,45.8,41.0,30.28,SSW,206,0.0,0.0,84,0.00,,,0.00,0,weatherlink.com 1.10,2013-01-05 13:33:00,
2013-01-05 05:48:00,46.0,41.0,30.28,SSW,206,0.0,1.0,84,0.00,,,0.00,0,weatherlink.com 1.10,2013-01-05 13:48:00,
2013-01-05 06:03:00,46.2,42.0,30.28,SSW,206,0.0,1.0,84,0.00,,,0.00,0,weatherlink.com 1.10,2013-01-05 14:03:00,
2013-01-05 06:18:00,46.5,42.0,30.29,SSW,206,0.0,1.0,85,0.00,,,0.00,0,weatherlink.com 1.10,2013-01-05 14:18:00,
2013-01-05 06:33:00,46.8,43.0,30.29,SSW,206,0.0,1.0,85,0.00,,,0.00,0,weatherlink.com 1.10,2013-01-05 14:33:00,
2013-01-05 06:48:00,47.0,43.0,30.28,SSW,206,0.0,0.0,85,0.00,,,0.00,0,weatherlink.com 1.10,2013-01-05 14:48:00,
2013-01-05 07:03:00,47.0,42.0,30.29,ESE,108,2.0,3.0,84,0.00,,,0.00,0,weatherlink.com 1.10,2013-01-05 15:03:00,
2013-01-05 07:18:00,47.2,43.0,30.29,ESE,106,0.0,2.0,84,0.00,,,0.00,0,weatherlink.com 1.10,2013-01-05 15:18:00,
2013-01-05 07:33:00,47.1,43.0,30.29,ESE,106,0.0,2.0,84,0.00,,,0.00,0,weatherlink.com 1.10,2013-01-05 15:33:00,
2013-01-05 07:48:00,-999.0,-99.9,30.29,North,-999,-999.0,-999.0,-999,0.00,,,0.00,,weatherlink.com 1.10,2013-01-05 15:48:00,
2013-01-05 08:03:00,-999.0,-99.9,30.29,North,-999,-999.0,-999.0,-999,0.00,,,0.00,,weatherlink.com 1.10,2013-01-05 16:03:00,
2013-01-05 08:18:00,-999.0,-99.9,30.30,North,-999,-999.0,-999.0,-999,0.00,,,0.00,,weatherlink.com 1.10,2013-01-05 16:18:00,
2013-01-05 08:33:00,47.6,44.0,30.30,East,90,0.0,3.0,86,0.00,,,0.00,88,weatherlink.com 1.10,2013-01-05 16:33:00,
2013-01-05 08:48:00,48.1,44.0,30.30,ESE,114,2.0,3.0,87,0.00,,,0.00,70,weatherlink.com 1.10,2013-01-05 16:48:00,
2013-01-05 09:03:00,48.5,45.0,30.30,ESE,112,0.0,3.0,87,0.00,,,0.00,151,weatherlink.com 1.10,2013-01-05 17:03:00,
2013-01-05 09:18:00,49.4,45.0,30.29,East,94,0.0,3.0,84,0.00,,,0.00,165,weatherlink.com 1.10,2013-01-05 17:18:00,
2013-01-05 09:33:00,49.7,44.0,30.29,SE,131,3.0,7.0,82,0.00,,,0.00,125,weatherlink.com 1.10,2013-01-05 17:33:00,
2013-01-05 09:48:00,49.9,44.0,30.29,SSE,148,0.0,7.0,81,0.00,,,0.00,127,weatherlink.com 1.10,2013-01-05 17:48:00,
2013-01-05 10:03:00,49.5,44.0,30.27,SE,129,2.0,10.0,82,0.00,,,0.00,141,weatherlink.com 1.10,2013-01-05 18:03:00,
2013-01-05 10:18:00,48.9,44.0,30.25,East,98,2.0,12.0,84,0.00,,,0.00,178,weatherlink.com 1.10,2013-01-05 18:18:00,
2013-01-05 10:33:00,48.8,44.0,30.27,SSE,156,0.0,9.0,83,0.00,,,0.00,197,weatherlink.com 1.10,2013-01-05 18:33:00,
2013-01-05 10:48:00,49.0,44.0,30.27,ENE,78,0.0,5.0,82,0.00,,,0.00,153,weatherlink.com 1.10,2013-01-05 18:48:00,
2013-01-05 11:03:00,49.4,44.0,30.27,ESE,116,0.0,2.0,82,0.00,,,0.00,163,weatherlink.com 1.10,2013-01-05 19:03:00,
2013-01-05 11:18:00,50.7,45.0,30.27,SW,227,0.0,2.0,80,0.00,,,0.00,234,weatherlink.com 1.10,2013-01-05 19:18:00,
2013-01-05 11:34:00,51.1,45.0,30.25,South,184,0.0,3.0,79,0.00,,,0.00,176,weatherlink.com 1.10,2013-01-05 19:34:00,
2013-01-05 11:49:00,51.8,45.0,30.25,ESE,112,1.0,2.0,78,0.00,,,0.00,207,weatherlink.com 1.10,2013-01-05 19:49:00,
2013-01-05 12:04:00,52.2,46.0,30.24,SSW,193,2.0,3.0,78,0.00,,,0.00,190,weatherlink.com 1.10,2013-01-05 20:04:00,
2013-01-05 12:19:00,52.2,46.0,30.23,South,186,0.0,2.0,78,0.00,,,0.00,113,weatherlink.com 1.10,2013-01-05 20:19:00,
2013-01-05 12:34:00,51.8,45.0,30.22,SSE,153,0.0,3.0,78,0.00,,,0.00,125,weatherlink.com 1.10,2013-01-05 20:34:00,
2013-01-05 12:49:00,52.4,46.0,30.21,SE,142,0.0,2.0,79,0.00,,,0.00,141,weatherlink.com 1.10,2013-01-05 20:49:00,
2013-01-05 13:04:00,52.8,46.0,30.21,SE,142,0.0,1.0,77,0.00,,,0.00,77,weatherlink.com 1.10,2013-01-05 21:04:00,
2013-01-05 13:19:00,53.1,46.0,30.19,East,94,0.0,2.0,77,0.00,,,0.00,111,weatherlink.com 1.10,2013-01-05 21:19:00,
2013-01-05 13:34:00,51.7,45.0,30.19,ESE,103,0.0,4.0,79,0.00,,,0.00,84,weatherlink.com 1.10,2013-01-05 21:34:00,
2013-01-05 13:49:00,51.6,46.0,30.19,SE,135,0.0,2.0,80,0.00,,,0.00,47,weatherlink.com 1.10,2013-01-05 21:49:00,
2013-01-05 14:04:00,52.1,46.0,30.18,SE,135,0.0,1.0,79,0.00,,,0.00,49,weatherlink.com 1.10,2013-01-05 22:04:00,
2013-01-05 14:19:00,52.6,46.0,30.18,SE,135,0.0,1.0,78,0.00,,,0.00,42,weatherlink.com 1.10,2013-01-05 22:19:00,
2013-01-05 14:34:00,52.6,46.0,30.17,SE,136,0.0,3.0,78,0.00,,,0.00,53,weatherlink.com 1.10,2013-01-05 22:34:00,
2013-01-05 14:49:00,52.4,46.0,30.16,ESE,113,1.0,2.0,80,0.00,,,0.00,49,weatherlink.com 1.10,2013-01-05 22:49:00,
2013-01-05 15:04:00,51.3,46.0,30.16,SSW,206,0.0,4.0,83,0.00,,,0.00,33,weatherlink.com 1.10,2013-01-05 23:04:00,
2013-01-05 15:19:00,50.9,47.0,30.15,ESE,120,0.0,3.0,85,0.00,,,0.00,33,weatherlink.com 1.10,2013-01-05 23:19:00,
2013-01-05 15:34:00,50.9,47.0,30.15,ESE,120,0.0,2.0,86,0.01,,,0.01,26,weatherlink.com 1.10,2013-01-05 23:34:00,
2013-01-05 15:49:00,50.8,47.0,30.15,SE,141,0.0,1.0,87,0.02,,,0.02,19,weatherlink.com 1.10,2013-01-05 23:49:00,
2013-01-05 16:04:00,50.6,47.0,30.15,SE,141,0.0,1.0,87,0.04,,,0.04,14,weatherlink.com 1.10,2013-01-06 00:04:00,
2013-01-05 16:19:00,50.6,47.0,30.14,SE,141,0.0,0.0,88,0.04,,,0.04,11,weatherlink.com 1.10,2013-01-06 00:19:00,
2013-01-05 16:34:00,50.8,47.0,30.15,SE,141,0.0,0.0,87,0.03,,,0.04,12,weatherlink.com 1.10,2013-01-06 00:34:00,
2013-01-05 16:49:00,50.6,47.0,30.14,SE,141,0.0,2.0,87,0.02,,,0.04,11,weatherlink.com 1.10,2013-01-06 00:49:00,
2013-01-05 17:04:00,50.4,47.0,30.14,SE,141,0.0,1.0,88,0.01,,,0.05,0,weatherlink.com 1.10,2013-01-06 01:04:00,
2013-01-05 17:19:00,50.1,47.0,30.14,SE,141,0.0,1.0,90,0.02,,,0.06,0,weatherlink.com 1.10,2013-01-06 01:19:00,
2013-01-05 17:34:00,50.0,48.0,30.14,SE,141,0.0,0.0,91,0.03,,,0.07,0,weatherlink.com 1.10,2013-01-06 01:34:00,
2013-01-05 17:49:00,49.9,48.0,30.14,SE,141,0.0,1.0,92,0.05,,,0.09,0,weatherlink.com 1.10,2013-01-06 01:49:00,
2013-01-05 18:04:00,49.7,48.0,30.13,SE,141,0.0,1.0,92,0.05,,,0.10,0,weatherlink.com 1.10,2013-01-06 02:04:00,
2013-01-05 18:19:00,49.7,48.0,30.12,ENE,64,0.0,4.0,93,0.05,,,0.11,0,weatherlink.com 1.10,2013-01-06 02:19:00,
2013-01-05 18:34:00,49.3,47.0,30.12,ENE,64,0.0,1.0,93,0.04,,,0.11,0,weatherlink.com 1.10,2013-01-06 02:34:00,
2013-01-05 18:49:00,49.3,47.0,30.12,ENE,64,0.0,0.0,93,0.05,,,0.14,0,weatherlink.com 1.10,2013-01-06 02:49:00,
2013-01-05 19:04:00,49.4,48.0,30.12,ENE,64,0.0,1.0,93,0.08,,,0.18,0,weatherlink.com 1.10,2013-01-06 03:04:00,
2013-01-05 19:19:00,49.5,48.0,30.11,ENE,64,0.0,1.0,94,0.08,,,0.19,0,weatherlink.com 1.10,2013-01-06 03:19:00,
2013-01-05 19:34:00,49.5,48.0,30.12,ENE,64,0.0,1.0,94,0.08,,,0.19,0,weatherlink.com 1.10,2013-01-06 03:34:00,
2013-01-05 19:49:00,49.3,48.0,30.12,ENE,64,0.0,1.0,94,0.07,,,0.21,0,weatherlink.com 1.10,2013-01-06 03:49:00,
2013-01-05 20:04:00,49.4,48.0,30.12,ENE,64,0.0,1.0,94,0.03,,,0.21,0,weatherlink.com 1.10,2013-01-06 04:04:00,
2013-01-05 20:19:00,49.3,48.0,30.12,ENE,69,3.0,3.0,94,0.03,,,0.22,0,weatherlink.com 1.10,2013-01-06 04:19:00,
2013-01-05 20:34:00,49.5,48.0,30.12,ESE,104,0.0,0.0,94,0.04,,,0.23,0,weatherlink.com 1.10,2013-01-06 04:34:00,
2013-01-05 20:49:00,49.6,48.0,30.11,ESE,104,0.0,0.0,94,0.02,,,0.23,0,weatherlink.com 1.10,2013-01-06 04:49:00,
2013-01-05 21:05:00,49.7,48.0,30.12,ESE,106,0.0,2.0,94,0.02,,,0.23,0,weatherlink.com 1.10,2013-01-06 05:05:00,
2013-01-05 21:19:00,49.7,48.0,30.11,SSE,150,0.0,4.0,94,0.01,,,0.23,0,weatherlink.com 1.10,2013-01-06 05:19:00,
2013-01-05 21:34:00,49.7,48.0,30.12,SE,139,0.0,3.0,94,0.00,,,0.23,0,weatherlink.com 1.10,2013-01-06 05:34:00,
2013-01-05 21:49:00,49.6,48.0,30.12,SSE,156,0.0,2.0,94,0.01,,,0.24,0,weatherlink.com 1.10,2013-01-06 05:49:00,
2013-01-05 22:04:00,49.6,48.0,30.11,SSE,156,0.0,2.0,94,0.01,,,0.24,0,weatherlink.com 1.10,2013-01-06 06:04:00,
2013-01-05 22:19:00,50.1,49.0,30.11,SE,146,1.0,2.0,95,0.01,,,0.24,0,weatherlink.com 1.10,2013-01-06 06:19:00,
2013-01-05 22:34:00,49.9,48.0,30.11,ESE,110,0.0,2.0,94,0.01,,,0.24,0,weatherlink.com 1.10,2013-01-06 06:34:00,
2013-01-05 22:50:00,49.9,48.0,30.11,SE,135,0.0,2.0,94,0.00,,,0.24,0,weatherlink.com 1.10,2013-01-06 06:50:00,
2013-01-05 23:05:00,49.6,48.0,30.12,SE,125,2.0,5.0,94,0.00,,,0.24,0,weatherlink.com 1.10,2013-01-06 07:05:00,
2013-01-05 23:20:00,49.6,48.0,30.11,SE,142,0.0,1.0,94,0.00,,,0.24,0,weatherlink.com 1.10,2013-01-06 07:20:00,
2013-01-05 23:35:00,49.4,48.0,30.11,SE,142,2.0,2.0,93,0.00,,,0.24,0,weatherlink.com 1.10,2013-01-06 07:35:00,
2013-01-05 23:50:00,49.7,48.0,30.10,ESE,110,0.0,4.0,93,0.00,,,0.24,0,weatherlink.com 1.10,2013-01-06 07:50:00,